createdAt,value
2022-10-09T00:00:07.245Z,85.31
2022-10-09T00:02:37.611Z,85.48
2022-10-09T00:05:08.712Z,85.54
2022-10-09T00:07:39.178Z,85.77
2022-10-09T00:10:09.916Z,85.62
2022-10-09T00:12:40.284Z,85.76
2022-10-09T00:15:11.406Z,85.89
2022-10-09T00:17:41.804Z,85.60
2022-10-09T00:20:12.623Z,85.83
2022-10-09T00:22:44.748Z,85.82
2022-10-09T00:25:15.227Z,85.93
2022-10-09T00:27:45.546Z,86.04
2022-10-09T00:30:16.079Z,85.99
2022-10-09T00:32:46.787Z,85.79
2022-10-09T00:35:17.495Z,86.01
2022-10-09T00:37:48.741Z,86.06
2022-10-09T00:40:21.098Z,86.24
2022-10-09T00:42:59.181Z,86.19
2022-10-09T00:45:30.555Z,86.41
2022-10-09T00:48:07.333Z,86.60
2022-10-09T00:50:55.154Z,86.37
2022-10-09T00:53:28.021Z,86.51
2022-10-09T00:55:59.244Z,86.48
2022-10-09T00:58:29.732Z,86.64
2022-10-09T01:01:00.506Z,86.68
2022-10-09T01:03:30.854Z,86.72
2022-10-09T01:06:23.969Z,86.39
2022-10-09T01:09:15.663Z,86.42
2022-10-09T01:12:00.991Z,86.47
2022-10-09T01:14:34.411Z,86.49
2022-10-09T01:17:10.834Z,86.68
2022-10-09T01:20:04.696Z,86.71
2022-10-09T01:23:01.921Z,86.57
2022-10-09T01:25:47.571Z,86.73
2022-10-09T01:28:21.125Z,86.66
2022-10-09T01:30:52.390Z,86.63
2022-10-09T01:33:23.039Z,86.65
2022-10-09T01:35:55.226Z,86.60
2022-10-09T01:38:26.366Z,86.55
2022-10-09T01:40:57.806Z,86.49
2022-10-09T01:43:28.210Z,86.55
2022-10-09T01:46:24.272Z,86.53
2022-10-09T01:48:57.948Z,86.54
2022-10-09T01:51:31.320Z,86.63
2022-10-09T01:54:04.826Z,86.77
2022-10-09T01:56:37.729Z,86.72
2022-10-09T01:59:16.110Z,86.57
2022-10-09T02:01:47.727Z,86.67
2022-10-09T02:04:19.431Z,86.97
2022-10-09T02:06:50.333Z,86.75
2022-10-09T02:09:20.712Z,86.62
2022-10-09T02:11:54.206Z,86.75
2022-10-09T02:14:24.809Z,86.64
2022-10-09T02:17:00.988Z,86.62
2022-10-09T02:19:34.811Z,86.65
2022-10-09T02:22:20.170Z,86.67
2022-10-09T02:24:50.785Z,86.68
2022-10-09T02:27:22.937Z,86.74
2022-10-09T02:29:54.092Z,86.91
2022-10-09T02:32:24.562Z,86.91
2022-10-09T02:34:54.967Z,86.91
2022-10-09T02:37:25.540Z,86.74
2022-10-09T02:39:56.027Z,86.70
2022-10-09T02:42:26.496Z,86.72
2022-10-09T02:44:56.912Z,86.74
2022-10-09T02:47:27.233Z,86.73
2022-10-09T02:49:57.633Z,86.84
2022-10-09T02:52:28.143Z,86.92
2022-10-09T02:54:58.516Z,86.88
2022-10-09T02:57:29.124Z,87.01
2022-10-09T02:59:59.433Z,86.73
2022-10-09T03:02:30.092Z,86.84
2022-10-09T03:05:00.813Z,86.94
2022-10-09T03:07:31.195Z,86.92
2022-10-09T03:10:01.669Z,86.99
2022-10-09T03:12:31.992Z,87.02
2022-10-09T03:15:02.454Z,87.19
2022-10-09T03:17:32.818Z,87.06
2022-10-09T03:20:03.253Z,87.13
2022-10-09T03:22:33.595Z,87.17
2022-10-09T03:25:04.161Z,87.15
2022-10-09T03:27:34.895Z,87.26
2022-10-09T03:30:05.988Z,87.47
2022-10-09T03:32:36.380Z,87.46
2022-10-09T03:35:07.477Z,87.44
2022-10-09T03:37:37.780Z,87.35
2022-10-09T03:40:08.823Z,87.25
2022-10-09T03:42:39.142Z,87.23
2022-10-09T03:45:10.421Z,87.27
2022-10-09T03:47:40.834Z,87.34
2022-10-09T03:50:11.419Z,87.31
2022-10-09T03:52:41.721Z,87.21
2022-10-09T03:55:12.128Z,87.23
2022-10-09T03:57:42.586Z,87.23
2022-10-09T04:00:14.019Z,87.41
2022-10-09T04:02:44.814Z,87.36
2022-10-09T04:05:15.409Z,87.32
2022-10-09T04:07:46.173Z,87.52
2022-10-09T04:10:16.770Z,87.39
2022-10-09T04:12:47.443Z,87.33
2022-10-09T04:15:18.293Z,87.34
2022-10-09T04:17:48.670Z,87.38
2022-10-09T04:20:20.804Z,87.43
2022-10-09T04:22:51.645Z,87.56
2022-10-09T04:25:22.213Z,87.71
2022-10-09T04:27:52.570Z,87.73
2022-10-09T04:30:22.879Z,87.56
2022-10-09T04:32:53.175Z,87.64
2022-10-09T04:35:23.576Z,87.61
2022-10-09T04:37:53.943Z,87.74
2022-10-09T04:40:24.344Z,87.68
2022-10-09T04:42:54.716Z,87.70
2022-10-09T04:45:25.114Z,87.55
2022-10-09T04:47:55.440Z,87.50
2022-10-09T04:50:25.955Z,87.59
2022-10-09T04:52:56.254Z,87.68
2022-10-09T04:55:26.564Z,87.61
2022-10-09T04:57:56.871Z,87.54
2022-10-09T05:00:27.214Z,87.58
2022-10-09T05:02:57.587Z,87.57
2022-10-09T05:05:27.894Z,87.55
2022-10-09T05:07:58.252Z,87.65
2022-10-09T05:10:28.639Z,87.69
2022-10-09T05:12:59.844Z,87.72
2022-10-09T05:15:30.249Z,87.77
2022-10-09T05:18:00.596Z,87.77
2022-10-09T05:20:30.936Z,88.07
2022-10-09T05:23:01.486Z,87.97
2022-10-09T05:25:31.839Z,88.02
2022-10-09T05:28:04.779Z,88.08
2022-10-09T05:30:35.065Z,88.10
2022-10-09T05:33:05.446Z,88.10
2022-10-09T05:35:35.801Z,88.17
2022-10-09T05:38:06.163Z,88.20
2022-10-09T05:40:36.563Z,88.18
2022-10-09T05:43:06.978Z,88.13
2022-10-09T05:45:37.369Z,88.14
2022-10-09T05:48:07.805Z,88.19
2022-10-09T05:50:38.215Z,88.08
2022-10-09T05:53:08.624Z,88.02
2022-10-09T05:55:38.939Z,87.82
2022-10-09T05:58:09.365Z,87.68
2022-10-09T06:00:39.702Z,87.70
2022-10-09T06:03:10.062Z,87.70
2022-10-09T06:05:40.421Z,87.86
2022-10-09T06:08:10.747Z,87.80
2022-10-09T06:10:41.143Z,87.53
2022-10-09T06:13:11.533Z,87.42
2022-10-09T06:15:43.545Z,87.52
2022-10-09T06:18:15.387Z,87.59
2022-10-09T06:20:54.045Z,87.53
2022-10-09T06:23:24.620Z,87.31
2022-10-09T06:25:56.845Z,86.62
2022-10-09T06:28:30.765Z,86.47
2022-10-09T06:31:07.576Z,86.23
2022-10-09T06:33:40.099Z,86.72
2022-10-09T06:36:13.976Z,87.10
2022-10-09T06:38:44.815Z,87.03
2022-10-09T06:41:17.830Z,86.98
2022-10-09T06:44:04.044Z,86.75
2022-10-09T06:46:37.745Z,86.82
2022-10-09T06:49:09.301Z,86.96
2022-10-09T06:51:40.130Z,86.96
2022-10-09T06:54:17.240Z,85.84
2022-10-09T06:56:47.675Z,86.14
2022-10-09T06:59:18.156Z,85.95
2022-10-09T07:01:48.646Z,86.30
2022-10-09T07:04:19.221Z,85.79
2022-10-09T07:06:49.747Z,86.01
2022-10-09T07:09:20.144Z,85.69
2022-10-09T07:11:50.503Z,85.64
2022-10-09T07:14:20.993Z,85.50
2022-10-09T07:16:53.353Z,85.55
2022-10-09T07:19:23.989Z,85.37
2022-10-09T07:21:54.437Z,85.22
2022-10-09T07:24:25.504Z,84.84
2022-10-09T07:26:57.221Z,84.58
2022-10-09T07:29:27.612Z,84.74
2022-10-09T07:31:58.171Z,84.56
2022-10-09T07:34:28.670Z,84.58
2022-10-09T07:36:59.063Z,84.96
2022-10-09T07:39:29.497Z,84.40
2022-10-09T07:41:59.868Z,84.30
2022-10-09T07:44:30.224Z,84.10
2022-10-09T07:47:00.775Z,83.45
2022-10-09T07:49:31.352Z,83.74
2022-10-09T07:52:01.803Z,83.70
2022-10-09T07:54:32.177Z,83.63
2022-10-09T07:57:02.548Z,83.22
2022-10-09T07:59:33.015Z,83.42
2022-10-09T08:02:03.553Z,83.08
2022-10-09T08:04:34.194Z,83.22
2022-10-09T08:07:04.727Z,83.52
2022-10-09T08:09:35.123Z,83.69
2022-10-09T08:12:07.439Z,82.88
2022-10-09T08:14:37.884Z,83.02
2022-10-09T08:17:08.317Z,82.70
2022-10-09T08:19:38.712Z,82.62
2022-10-09T08:22:10.736Z,82.17
2022-10-09T08:24:41.143Z,82.92
2022-10-09T08:27:14.399Z,82.37
2022-10-09T08:29:44.826Z,82.15
2022-10-09T08:32:15.297Z,82.12
2022-10-09T08:34:45.617Z,82.19
2022-10-09T08:37:16.024Z,81.51
2022-10-09T08:39:46.352Z,80.88
2022-10-09T08:42:19.913Z,80.78
2022-10-09T08:44:50.766Z,80.38
2022-10-09T08:47:42.061Z,80.39
2022-10-09T08:50:15.475Z,80.38
2022-10-09T08:52:56.052Z,80.28
2022-10-09T08:58:39.113Z,80.45
2022-10-09T09:01:21.469Z,80.78
2022-10-09T09:04:04.163Z,80.23
2022-10-09T09:06:43.366Z,79.64
2022-10-09T09:09:36.378Z,80.04
2022-10-09T09:12:25.213Z,78.85
2022-10-09T09:14:58.762Z,78.86
2022-10-09T09:17:38.093Z,77.01
2022-10-09T09:20:45.451Z,77.11
2022-10-09T09:23:17.414Z,75.77
2022-10-09T09:25:48.186Z,74.61
2022-10-09T09:28:30.821Z,72.10
2022-10-09T09:31:19.258Z,69.81
2022-10-09T09:34:13.741Z,66.09
2022-10-09T09:36:59.325Z,66.80
2022-10-09T09:40:30.992Z,65.82
2022-10-09T09:42:17.333Z,65.94
2022-10-09T09:44:53.760Z,65.15
2022-10-09T09:47:32.979Z,64.67
2022-10-09T09:50:05.597Z,65.20
2022-10-09T09:52:42.082Z,65.88
2022-10-09T09:55:27.432Z,65.74
2022-10-09T09:58:07.168Z,65.72
2022-10-09T10:00:37.587Z,67.40
2022-10-09T10:03:17.852Z,67.60
2022-10-09T10:05:48.671Z,65.79
2022-10-09T10:08:30.946Z,65.79
2022-10-09T10:11:03.900Z,67.47
2022-10-09T10:13:52.147Z,66.58
2022-10-09T10:16:27.674Z,67.44
2022-10-09T10:18:59.269Z,68.60
2022-10-09T10:21:32.723Z,68.59
2022-10-09T10:24:08.670Z,68.43
2022-10-09T10:26:49.105Z,66.37
2022-10-09T10:29:34.506Z,66.06
2022-10-09T10:32:07.960Z,65.56
2022-10-09T10:34:44.058Z,64.96
2022-10-09T10:37:17.625Z,66.60
2022-10-09T10:39:53.652Z,66.86
2022-10-09T10:42:27.202Z,65.26
2022-10-09T10:45:12.960Z,66.59
2022-10-09T10:47:52.570Z,64.78
2022-10-09T10:50:25.120Z,62.74
2022-10-09T10:53:17.189Z,61.95
2022-10-09T10:56:08.108Z,59.52
2022-10-09T10:58:50.547Z,59.47
2022-10-09T11:01:23.921Z,59.16
2022-10-09T11:04:12.378Z,56.04
2022-10-09T11:06:54.833Z,57.12
2022-10-09T11:09:52.022Z,56.25
2022-10-09T11:12:52.921Z,54.84
2022-10-09T11:15:41.466Z,58.12
2022-10-09T11:18:20.573Z,54.41
2022-10-09T11:21:02.536Z,54.73
2022-10-09T11:23:55.366Z,53.82
2022-10-09T11:27:03.962Z,52.49
2022-10-09T11:29:53.920Z,50.00
2022-10-09T11:32:33.231Z,48.99
2022-10-09T11:35:18.601Z,46.55
2022-10-09T11:38:00.733Z,46.10
2022-10-09T11:40:35.788Z,42.85
2022-10-09T11:43:30.208Z,40.39
2022-10-09T11:46:15.111Z,37.90
2022-10-09T11:48:57.192Z,38.85
2022-10-09T11:51:36.515Z,42.39
2022-10-09T11:54:09.982Z,42.27
2022-10-09T11:56:40.361Z,42.43
2022-10-09T11:59:13.809Z,44.24
2022-10-09T12:01:46.697Z,47.31
2022-10-09T12:04:43.493Z,49.26
2022-10-09T12:07:01.462Z,50.56
2022-10-09T12:09:40.935Z,51.78
2022-10-09T12:12:20.852Z,52.06
2022-10-09T12:14:53.106Z,52.48
2022-10-09T12:17:26.584Z,52.20
2022-10-09T12:20:02.676Z,52.45
2022-10-09T12:22:56.403Z,52.10
2022-10-09T12:25:25.743Z,54.34
2022-10-09T12:27:58.414Z,54.95
2022-10-09T12:30:34.586Z,55.97
2022-10-09T12:33:23.386Z,55.33
2022-10-09T12:36:09.036Z,55.31
2022-10-09T12:38:39.462Z,55.52
2022-10-09T12:41:20.010Z,56.17
2022-10-09T12:43:48.937Z,54.61
2022-10-09T12:46:30.853Z,54.50
2022-10-09T12:49:03.810Z,53.88
2022-10-09T12:51:35.156Z,54.61
2022-10-09T12:54:10.915Z,54.87
2022-10-09T12:56:41.410Z,53.40
2022-10-09T12:59:13.622Z,54.50
2022-10-09T13:01:45.620Z,54.66
2022-10-09T13:04:34.015Z,55.25
2022-10-09T13:07:10.234Z,54.63
2022-10-09T13:09:42.240Z,55.14
2022-10-09T13:12:24.327Z,53.29
2022-10-09T13:14:57.581Z,54.67
2022-10-09T13:17:40.633Z,54.91
2022-10-09T13:20:17.125Z,55.34
2022-10-09T13:23:02.169Z,54.61
2022-10-09T13:25:41.629Z,54.81
2022-10-09T13:28:15.147Z,55.24
2022-10-09T13:30:45.770Z,55.63
2022-10-09T13:33:17.948Z,55.47
2022-10-09T13:35:48.632Z,54.29
2022-10-09T13:38:20.420Z,55.47
2022-10-09T13:40:51.337Z,55.08
2022-10-09T13:43:27.209Z,55.56
2022-10-09T13:45:58.163Z,55.47
2022-10-09T13:48:30.157Z,55.91
2022-10-09T13:51:00.761Z,55.86
2022-10-09T13:53:31.078Z,54.71
2022-10-09T13:56:02.049Z,54.95
2022-10-09T13:58:32.439Z,55.61
2022-10-09T14:01:03.217Z,54.05
2022-10-09T14:03:33.957Z,54.36
2022-10-09T14:06:06.237Z,53.78
2022-10-09T14:08:36.839Z,54.60
2022-10-09T14:11:07.466Z,54.69
2022-10-09T14:13:37.923Z,54.55
2022-10-09T14:16:08.709Z,54.09
2022-10-09T14:18:39.142Z,54.67
2022-10-09T14:21:15.601Z,55.40
2022-10-09T14:23:46.162Z,55.66
2022-10-09T14:26:16.677Z,55.30
2022-10-09T14:28:47.099Z,55.13
2022-10-09T14:31:17.653Z,55.64
2022-10-09T14:33:49.302Z,55.23
2022-10-09T14:36:20.725Z,55.82
2022-10-09T14:38:51.570Z,55.71
2022-10-09T14:41:22.852Z,56.33
2022-10-09T14:43:56.789Z,57.28
2022-10-09T14:46:28.609Z,57.69
2022-10-09T14:48:59.103Z,57.90
2022-10-09T14:51:33.609Z,58.10
2022-10-09T14:54:01.784Z,58.33
2022-10-09T14:56:32.639Z,58.84
2022-10-09T14:59:05.346Z,58.42
2022-10-09T15:01:36.156Z,58.15
2022-10-09T15:04:07.275Z,57.64
2022-10-09T15:06:37.952Z,56.07
2022-10-09T15:09:08.310Z,56.87
2022-10-09T15:11:38.767Z,56.92
2022-10-09T15:14:09.153Z,56.83
2022-10-09T15:16:39.467Z,56.99
2022-10-09T15:19:09.759Z,57.10
2022-10-09T15:21:40.250Z,57.78
2022-10-09T15:24:11.387Z,58.60
2022-10-09T15:26:42.035Z,59.01
2022-10-09T15:29:12.486Z,59.00
2022-10-09T15:31:43.165Z,59.68
2022-10-09T15:34:16.709Z,60.10
2022-10-09T15:36:47.845Z,60.32
2022-10-09T15:39:18.428Z,60.16
2022-10-09T15:41:48.943Z,60.47
2022-10-09T15:44:21.435Z,61.83
2022-10-09T15:46:52.144Z,61.96
2022-10-09T15:49:22.526Z,62.40
2022-10-09T15:51:53.368Z,62.42
2022-10-09T15:54:25.665Z,62.46
2022-10-09T15:56:56.034Z,62.55
2022-10-09T15:59:29.720Z,62.52
2022-10-09T16:02:00.237Z,62.23
2022-10-09T16:04:31.075Z,62.32
2022-10-09T16:07:01.789Z,62.63
2022-10-09T16:09:36.278Z,63.24
2022-10-09T16:12:07.495Z,65.01
2022-10-09T16:14:38.341Z,63.56
2022-10-09T16:17:11.340Z,64.78
2022-10-09T16:19:40.898Z,65.11
2022-10-09T16:22:12.998Z,65.74
2022-10-09T16:24:43.472Z,66.59
2022-10-09T16:27:13.949Z,67.04
2022-10-09T16:29:44.673Z,69.15
2022-10-09T16:32:15.053Z,69.57
2022-10-09T16:34:45.438Z,69.93
2022-10-09T16:37:15.841Z,69.84
2022-10-09T16:39:46.296Z,68.19
2022-10-09T16:42:17.630Z,70.12
2022-10-09T16:44:51.515Z,69.11
2022-10-09T16:47:21.883Z,70.35
2022-10-09T16:49:52.454Z,69.38
2022-10-09T16:52:22.927Z,70.18
2022-10-09T16:54:57.013Z,70.76
2022-10-09T16:57:27.181Z,70.89
2022-10-09T16:59:57.635Z,70.94
2022-10-09T17:02:28.626Z,70.92
2022-10-09T17:04:59.010Z,70.36
2022-10-09T17:07:30.307Z,71.16
2022-10-09T17:10:00.703Z,70.09
2022-10-09T17:12:31.069Z,70.35
2022-10-09T17:15:01.464Z,70.16
2022-10-09T17:17:31.864Z,71.61
2022-10-09T17:20:02.586Z,71.14
2022-10-09T17:22:32.977Z,71.51
2022-10-09T17:25:03.375Z,70.01
2022-10-09T17:27:33.776Z,71.08
2022-10-09T17:30:04.302Z,70.03
2022-10-09T17:32:34.667Z,70.43
2022-10-09T17:35:07.046Z,71.76
2022-10-09T17:37:37.509Z,71.41
2022-10-09T17:40:08.514Z,72.33
2022-10-09T17:42:39.197Z,71.95
2022-10-09T17:45:10.152Z,71.81
2022-10-09T17:47:40.616Z,72.05
2022-10-09T17:50:12.153Z,72.62
2022-10-09T17:52:42.629Z,71.92
2022-10-09T17:55:13.035Z,72.05
2022-10-09T17:57:43.567Z,72.18
2022-10-09T18:00:19.656Z,73.15
2022-10-09T18:02:47.166Z,72.85
2022-10-09T18:05:17.690Z,71.69
2022-10-09T18:07:48.515Z,73.00
2022-10-09T18:10:20.774Z,72.52
2022-10-09T18:12:51.367Z,72.75
2022-10-09T18:15:21.924Z,73.01
2022-10-09T18:17:52.780Z,73.71
2022-10-09T18:20:26.508Z,73.59
2022-10-09T18:22:57.054Z,73.67
2022-10-09T18:25:27.551Z,74.05
2022-10-09T18:27:58.520Z,74.05
2022-10-09T18:30:28.931Z,74.44
2022-10-09T18:32:59.339Z,74.22
2022-10-09T18:35:30.251Z,74.78
2022-10-09T18:38:00.696Z,75.09
2022-10-09T18:40:31.032Z,74.56
2022-10-09T18:43:01.497Z,74.71
2022-10-09T18:45:32.468Z,74.71
2022-10-09T18:48:03.841Z,73.81
2022-10-09T18:50:34.404Z,73.66
2022-10-09T18:53:05.503Z,73.65
2022-10-09T18:55:36.105Z,73.42
2022-10-09T18:58:07.151Z,73.08
2022-10-09T19:00:39.355Z,73.46
2022-10-09T19:03:09.868Z,73.36
2022-10-09T19:05:40.338Z,73.85
2022-10-09T19:08:10.862Z,72.65
2022-10-09T19:10:41.237Z,72.67
2022-10-09T19:13:11.963Z,72.88
2022-10-09T19:15:42.331Z,72.70
2022-10-09T19:18:12.734Z,72.69
2022-10-09T19:20:43.040Z,72.83
2022-10-09T19:23:15.040Z,73.09
2022-10-09T19:25:50.542Z,73.78
2022-10-09T19:28:22.198Z,74.04
2022-10-09T19:30:53.380Z,74.25
2022-10-09T19:33:23.736Z,74.34
2022-10-09T19:35:56.500Z,74.20
2022-10-09T19:38:27.934Z,73.32
2022-10-09T19:41:07.167Z,73.88
2022-10-09T19:43:38.211Z,74.21
2022-10-09T19:46:11.640Z,74.75
2022-10-09T19:48:42.269Z,74.72
2022-10-09T19:51:15.903Z,74.58
2022-10-09T19:53:46.721Z,74.58
2022-10-09T19:56:20.059Z,74.30
2022-10-09T19:58:51.195Z,74.82
2022-10-09T20:01:24.828Z,75.02
2022-10-09T20:03:58.269Z,73.70
2022-10-09T20:06:29.472Z,74.00
2022-10-09T20:09:00.245Z,74.25
2022-10-09T20:11:30.584Z,73.44
2022-10-09T20:14:02.791Z,73.68
2022-10-09T20:16:33.610Z,73.21
2022-10-09T20:19:05.499Z,73.20
2022-10-09T20:21:36.248Z,72.86
2022-10-09T20:24:06.786Z,72.81
2022-10-09T20:26:42.204Z,72.66
2022-10-09T20:29:09.467Z,72.49
2022-10-09T20:31:40.439Z,72.99
2022-10-09T20:34:10.829Z,73.73
2022-10-09T20:36:41.330Z,72.90
2022-10-09T20:39:16.195Z,72.87
2022-10-09T20:41:46.709Z,72.85
2022-10-09T20:44:17.015Z,72.90
2022-10-09T20:46:47.423Z,73.78
2022-10-09T20:49:18.095Z,74.06
2022-10-09T20:51:48.511Z,73.88
2022-10-09T20:54:20.708Z,74.08
2022-10-09T20:56:51.502Z,74.29
2022-10-09T20:59:22.067Z,73.40
2022-10-09T21:01:52.566Z,73.71
2022-10-09T21:04:22.946Z,73.13
2022-10-09T21:06:53.478Z,73.43
2022-10-09T21:09:24.015Z,73.69
2022-10-09T21:11:54.478Z,73.21
2022-10-09T21:14:24.923Z,72.83
2022-10-09T21:16:55.349Z,72.68
2022-10-09T21:19:25.977Z,72.77
2022-10-09T21:21:56.416Z,72.89
2022-10-09T21:24:30.037Z,72.86
2022-10-09T21:27:00.356Z,72.98
2022-10-09T21:29:30.673Z,72.78
2022-10-09T21:32:01.115Z,73.00
2022-10-09T21:34:31.495Z,73.15
2022-10-09T21:37:20.355Z,73.60
2022-10-09T21:39:33.996Z,73.57
2022-10-09T21:42:04.470Z,73.91
2022-10-09T21:44:34.884Z,73.69
2022-10-09T21:47:05.518Z,73.93
2022-10-09T21:49:35.994Z,74.32
2022-10-09T21:52:06.447Z,74.43
2022-10-09T21:54:36.835Z,74.47
2022-10-09T21:57:07.208Z,74.60
2022-10-09T21:59:37.538Z,74.81
2022-10-09T22:02:07.877Z,74.65
2022-10-09T22:04:38.367Z,74.57
2022-10-09T22:07:08.873Z,75.13
2022-10-09T22:09:39.497Z,75.37
2022-10-09T22:12:09.924Z,75.17
2022-10-09T22:14:40.353Z,75.17
2022-10-09T22:17:11.069Z,75.13
2022-10-09T22:19:42.049Z,75.25
2022-10-09T22:22:12.457Z,75.39
2022-10-09T22:24:42.841Z,75.65
2022-10-09T22:27:13.179Z,75.67
2022-10-09T22:29:43.473Z,75.64
2022-10-09T22:32:13.799Z,75.59
2022-10-09T22:34:44.160Z,75.81
2022-10-09T22:37:14.637Z,75.77
2022-10-09T22:39:44.976Z,76.30
2022-10-09T22:42:15.623Z,76.15
2022-10-09T22:44:46.001Z,75.80
2022-10-09T22:47:16.391Z,75.90
2022-10-09T22:49:46.698Z,75.89
2022-10-09T22:52:17.178Z,75.67
2022-10-09T22:54:47.780Z,76.20
2022-10-09T22:57:18.938Z,76.01
2022-10-09T22:59:49.293Z,75.63
2022-10-09T23:02:19.606Z,76.21
2022-10-09T23:04:50.011Z,76.23
2022-10-09T23:07:20.411Z,76.20
2022-10-09T23:09:50.782Z,76.39
2022-10-09T23:12:21.327Z,76.39
2022-10-09T23:14:51.789Z,76.13
2022-10-09T23:17:22.199Z,76.29
2022-10-09T23:19:52.574Z,76.21
2022-10-09T23:22:23.102Z,75.99
2022-10-09T23:24:53.544Z,76.09
2022-10-09T23:27:23.933Z,76.35
2022-10-09T23:29:54.357Z,76.43
2022-10-09T23:32:24.952Z,76.33
2022-10-09T23:34:55.342Z,76.60
2022-10-09T23:37:25.719Z,76.57
2022-10-09T23:39:56.106Z,76.51
2022-10-09T23:42:26.636Z,76.59
2022-10-09T23:44:57.081Z,76.76
2022-10-09T23:47:27.515Z,76.75
2022-10-09T23:49:57.945Z,76.57
2022-10-09T23:52:28.356Z,76.64
2022-10-09T23:54:58.665Z,76.74
2022-10-09T23:57:29.052Z,77.04
2022-10-09T23:59:59.522Z,76.68
